YPDN METAR and TAF | Updated Today

YPDN METAR

Darwin International Airport

Observation time: 10 min. ago

YPDN 052100Z 02003KT CAVOK 25/24 Q1006 BKN250

Need help? Read our tutorial on how to read METARs or read the parsed version below.

Darwin International Airport (YPDN) METAR

  • Weather conditions on Sun, 05 Feb 2023 21:00:00 +0000 (10 min. ago):
  • Present conditions: Dry
  • Clouds: Clear skies
  • Visibility: Greater than 10 km
  • Wind: 20 degrees at 3 knots
  • Temperature: 25 celsius
  • Dew point: 24 celsius
  • Pressure: 1006 millibars
  • Remarks: None


Useful to know...

YPDN TAF

Darwin International Airport

TAF YPDN 052008Z 0521/0700 14005KT 9999 FEW015 FM060300 30010KT 9999 FEW030 FM061200 26007KT 9999 FEW015
Observation time: 62 min. ago
Need help? Read our tutorial on how to read TAFs or read the parsed version below.

Parsed version of TAF for Darwin International Airport (YPDN)

  • From 05 February at 21:00 UTC, to day 07 of the month at 00:00 UTC
  • Clouds: A few at 457 meters
  • Visibility: Greater than 10 km
  • Wind: 140 degrees at 5
  • From day 6 of the month at 03:00 UTC
  • Clouds: A few at 914 meters
  • Visibility: Greater than 10 km
  • Wind: 300 degrees at 10
  • From day 6 of the month at 12:00 UTC
  • Clouds: A few at 457 meters
  • Visibility: Greater than 10 km
  • Wind: 260 degrees at 7

Airports near YPDN

No airports found within 100nm radius.